Time;durP1;ratioP1;P1;durP2;ratioP2;P2;SDS_P1;SDS_P2;PMS_P1;PMS_P2;Temp;Humidity;BMP_temperature;BMP_pressure;BME280_temperature;BME280_humidity;BME280_pressure;Samples;Min_cycle;Max_cycle;Signal;HPM_P1;HPM_P2
2023/10/11 00:03:06;;;;;;;16.45;9.65;;;15.00;99.90;;;;;;5091333;28;20036;-74
2023/10/11 00:05:37;;;;;;;14.50;9.13;;;15.00;99.90;;;;;;5092323;28;20581;-73
2023/10/11 00:08:04;;;;;;;14.52;9.10;;;14.90;99.90;;;;;;5092886;28;20107;-72
2023/10/11 00:10:30;;;;;;;14.80;9.20;;;14.80;99.90;;;;;;5092692;28;20047;-72
2023/10/11 00:12:58;;;;;;;14.52;9.55;;;14.80;99.90;;;;;;5091326;28;20087;-73
2023/10/11 00:15:29;;;;;;;14.45;9.00;;;14.80;99.90;;;;;;5092331;28;20498;-73
2023/10/11 00:17:58;;;;;;;13.50;8.70;;;14.80;99.90;;;;;;5092541;28;20031;-73
2023/10/11 00:20:35;;;;;;;15.02;9.43;;;14.70;99.90;;;;;;5092868;28;20012;-73
2023/10/11 00:23:01;;;;;;;12.45;8.82;;;14.70;99.90;;;;;;5092368;28;20028;-73
2023/10/11 00:25:27;;;;;;;10.80;8.40;;;14.70;99.90;;;;;;5092188;28;20066;-72
2023/10/11 00:27:56;;;;;;;12.77;8.90;;;14.70;99.90;;;;;;5092119;28;20460;-72
2023/10/11 00:30:22;;;;;;;10.63;8.68;;;14.70;99.90;;;;;;5092209;28;20047;-73
2023/10/11 00:32:48;;;;;;;13.32;8.73;;;14.60;99.90;;;;;;5091566;28;20234;-72
2023/10/11 00:35:24;;;;;;;10.20;8.10;;;14.60;99.90;;;;;;5092154;28;20028;-73
2023/10/11 00:37:53;;;;;;;11.23;8.05;;;14.60;99.90;;;;;;5092051;28;20399;-72
2023/10/11 00:40:27;;;;;;;13.85;7.97;;;14.60;99.90;;;;;;5092364;28;20107;-73
2023/10/11 00:42:56;;;;;;;12.15;8.13;;;14.90;99.90;;;;;;5092012;28;20029;-73
2023/10/11 00:45:23;;;;;;;9.23;7.95;;;15.10;99.90;;;;;;5091894;28;20035;-73
2023/10/11 00:47:52;;;;;;;12.30;8.13;;;15.20;99.90;;;;;;5091484;28;20062;-73
2023/10/11 00:50:21;;;;;;;12.32;7.63;;;15.30;99.90;;;;;;5092034;28;20056;-73
2023/10/11 00:52:50;;;;;;;10.82;8.25;;;15.30;99.90;;;;;;5091439;28;20059;-74
2023/10/11 00:55:23;;;;;;;13.02;8.15;;;15.30;99.90;;;;;;5092248;28;20105;-73
2023/10/11 00:57:53;;;;;;;13.55;8.35;;;15.40;99.90;;;;;;5091901;28;20047;-73
2023/10/11 01:00:23;;;;;;;10.68;8.48;;;15.50;99.90;;;;;;5091748;28;20045;-74
2023/10/11 01:02:53;;;;;;;11.07;8.90;;;15.40;99.90;;;;;;5091337;28;20410;-74
2023/10/11 01:05:19;;;;;;;11.45;9.13;;;15.30;99.90;;;;;;5091633;28;20114;-73
2023/10/11 01:07:45;;;;;;;10.63;8.50;;;15.30;99.90;;;;;;5091431;28;20039;-73
2023/10/11 01:10:12;;;;;;;13.68;9.73;;;15.40;99.90;;;;;;5091493;28;20028;-72
2023/10/11 01:12:41;;;;;;;12.43;9.82;;;15.30;99.90;;;;;;5091887;28;20020;-72
2023/10/11 01:15:15;;;;;;;11.70;9.68;;;15.10;99.90;;;;;;5091470;28;20410;-73
2023/10/11 01:17:41;;;;;;;12.07;9.40;;;14.90;99.90;;;;;;5090958;28;20486;-72
2023/10/11 01:20:13;;;;;;;11.95;9.68;;;14.70;99.90;;;;;;5091600;28;20122;-73
2023/10/11 01:22:42;;;;;;;14.60;9.77;;;14.50;99.90;;;;;;5091762;28;20513;-72
2023/10/11 01:25:08;;;;;;;14.60;10.13;;;14.40;99.90;;;;;;5091222;28;20032;-73
2023/10/11 01:27:37;;;;;;;14.02;10.23;;;14.30;99.90;;;;;;5091457;28;20570;-72
2023/10/11 01:30:07;;;;;;;12.75;9.45;;;14.30;99.90;;;;;;5091292;28;20016;-73
2023/10/11 01:32:41;;;;;;;12.20;9.82;;;14.30;99.90;;;;;;5091655;28;20039;-73
2023/10/11 01:35:19;;;;;;;14.65;10.02;;;14.20;99.90;;;;;;5091175;28;20034;-72
2023/10/11 01:37:48;;;;;;;15.32;10.20;;;14.20;99.90;;;;;;5090651;28;20028;-73
2023/10/11 01:40:31;;;;;;;14.40;9.85;;;14.20;99.90;;;;;;5091191;28;20024;-73
2023/10/11 01:42:57;;;;;;;12.65;10.38;;;14.10;99.90;;;;;;5091410;28;20078;-72
2023/10/11 01:45:23;;;;;;;12.20;9.90;;;14.10;99.90;;;;;;5090824;28;20032;-73
2023/10/11 01:47:56;;;;;;;14.60;10.50;;;14.00;99.90;;;;;;5091298;28;20024;-72
2023/10/11 01:50:22;;;;;;;14.07;10.60;;;13.90;99.90;;;;;;5091315;28;20039;-72
2023/10/11 01:52:48;;;;;;;12.40;10.40;;;13.90;99.90;;;;;;5091221;28;20433;-73
2023/10/11 01:55:14;;;;;;;11.88;10.60;;;13.80;99.90;;;;;;5091563;28;20074;-72
2023/10/11 01:57:45;;;;;;;12.57;10.75;;;13.80;99.90;;;;;;5091170;28;20509;-72
2023/10/11 02:00:15;;;;;;;14.10;10.50;;;13.80;99.90;;;;;;5090702;28;20028;-72
2023/10/11 02:02:47;;;;;;;13.00;10.65;;;13.70;99.90;;;;;;5091167;28;20044;-72
2023/10/11 02:05:17;;;;;;;14.18;10.90;;;13.70;99.90;;;;;;5095125;28;20090;-72
2023/10/11 02:07:44;;;;;;;12.32;9.95;;;13.70;99.90;;;;;;5095327;28;20495;-72
2023/10/11 02:10:13;;;;;;;12.38;10.57;;;13.70;99.90;;;;;;5094799;28;20028;-72
2023/10/11 02:12:44;;;;;;;12.73;10.02;;;13.60;99.90;;;;;;5094941;28;20021;-72
2023/10/11 02:15:11;;;;;;;12.18;10.10;;;13.50;99.90;;;;;;5094582;28;20387;-71
2023/10/11 02:17:39;;;;;;;13.75;11.13;;;13.70;99.90;;;;;;5095432;28;20103;-73
2023/10/11 02:20:20;;;;;;;13.82;10.73;;;13.90;99.90;;;;;;5095093;28;20032;-72
2023/10/11 02:22:46;;;;;;;12.32;10.48;;;14.10;99.90;;;;;;5094460;28;20032;-73
2023/10/11 02:25:15;;;;;;;12.93;9.98;;;14.20;99.90;;;;;;5094765;28;20039;-73
2023/10/11 02:27:42;;;;;;;11.20;10.10;;;14.30;99.90;;;;;;5094472;28;20032;-71
2023/10/11 02:30:13;;;;;;;14.02;10.60;;;14.30;99.90;;;;;;5094375;28;20048;-73
2023/10/11 02:32:42;;;;;;;16.17;10.40;;;14.30;99.90;;;;;;5095276;28;20443;-73
2023/10/11 02:35:13;;;;;;;12.70;10.18;;;14.20;99.90;;;;;;5094443;28;20027;-72
2023/10/11 02:37:40;;;;;;;11.73;10.35;;;14.10;99.90;;;;;;5094753;28;20031;-73
2023/10/11 02:40:08;;;;;;;11.18;9.98;;;14.10;99.90;;;;;;5094315;28;20406;-72
2023/10/11 02:42:37;;;;;;;11.93;9.70;;;14.20;99.90;;;;;;5094205;28;20058;-72
2023/10/11 02:45:08;;;;;;;12.63;9.95;;;14.30;99.90;;;;;;5093871;28;20039;-72
2023/10/11 02:47:37;;;;;;;12.02;10.15;;;14.10;99.90;;;;;;5094973;28;20031;-72
2023/10/11 02:50:07;;;;;;;12.00;10.30;;;13.90;99.90;;;;;;5094544;28;20035;-71
2023/10/11 02:52:36;;;;;;;13.10;10.45;;;13.70;99.90;;;;;;5094124;28;20431;-71
2023/10/11 02:55:21;;;;;;;12.52;9.93;;;13.60;99.90;;;;;;5094868;28;20553;-72
2023/10/11 02:57:57;;;;;;;11.40;10.20;;;13.50;99.90;;;;;;5093821;28;20101;-72
2023/10/11 03:00:23;;;;;;;11.30;10.18;;;13.40;99.90;;;;;;5094534;28;20559;-72
2023/10/11 03:02:56;;;;;;;12.15;10.40;;;13.20;99.90;;;;;;5093909;28;20016;-72
2023/10/11 03:05:27;;;;;;;11.55;10.45;;;13.10;99.90;;;;;;5093924;28;20453;-73
2023/10/11 03:08:13;;;;;;;11.85;10.13;;;13.10;99.90;;;;;;5093917;28;20043;-73
2023/10/11 03:10:43;;;;;;;11.80;10.50;;;13.00;99.90;;;;;;5093610;28;20544;-72
2023/10/11 03:13:10;;;;;;;11.50;10.30;;;13.00;99.90;;;;;;5093468;28;20024;-72
2023/10/11 03:15:38;;;;;;;11.85;10.65;;;12.90;99.90;;;;;;5093362;28;20467;-72
2023/10/11 03:18:06;;;;;;;11.82;10.63;;;12.90;99.90;;;;;;5093810;28;20028;-71
2023/10/11 03:20:38;;;;;;;12.10;10.18;;;12.90;99.90;;;;;;5093914;28;20075;-72
2023/10/11 03:23:13;;;;;;;11.68;10.55;;;13.00;99.90;;;;;;5093379;28;20028;-72
2023/10/11 03:25:44;;;;;;;11.75;10.45;;;13.00;99.90;;;;;;5093326;28;20040;-72
2023/10/11 03:28:14;;;;;;;12.20;11.00;;;12.90;99.90;;;;;;5093028;28;20445;-72
2023/10/11 03:30:40;;;;;;;13.07;11.75;;;12.80;99.90;;;;;;5094010;28;20020;-72
2023/10/11 03:33:07;;;;;;;14.35;12.93;;;12.80;99.90;;;;;;5093220;28;20012;-72
2023/10/11 03:35:38;;;;;;;17.10;15.30;;;12.90;99.90;;;;;;5093297;28;20506;-72
2023/10/11 03:38:16;;;;;;;16.63;14.85;;;12.90;99.90;;;;;;5093409;28;20058;-71
2023/10/11 03:41:14;;;;;;;15.30;13.70;;;13.00;99.90;;;;;;5093509;28;20070;-72
2023/10/11 03:43:41;;;;;;;15.18;13.68;;;12.90;99.90;;;;;;5093104;28;20028;-72
2023/10/11 03:46:09;;;;;;;16.17;14.68;;;12.90;99.90;;;;;;5093420;28;20446;-72
2023/10/11 03:48:44;;;;;;;18.38;15.55;;;12.90;99.90;;;;;;5093200;28;20500;-71
2023/10/11 03:51:12;;;;;;;17.45;15.68;;;12.80;99.90;;;;;;5093089;28;20093;-72
2023/10/11 03:53:39;;;;;;;16.25;14.75;;;12.80;99.90;;;;;;5092998;28;20466;-72
2023/10/11 03:56:06;;;;;;;15.05;13.50;;;13.00;99.90;;;;;;5093049;28;20035;-71
2023/10/11 04:01:05;;;;;;;14.82;13.32;;;13.30;99.90;;;;;;5092632;28;20115;-72
2023/10/11 04:03:32;;;;;;;;;;;13.40;99.90;;;;;;5093142;28;20111;-71
2023/10/11 04:05:59;;;;;;;13.38;12.18;;;13.40;99.90;;;;;;5092792;28;19919;-72
2023/10/11 04:08:26;;;;;;;12.63;11.43;;;13.50;99.90;;;;;;5092721;28;20103;-72
2023/10/11 04:10:53;;;;;;;11.65;10.50;;;13.40;99.90;;;;;;5092397;28;20447;-72
2023/10/11 04:13:28;;;;;;;11.65;10.55;;;13.50;99.90;;;;;;5092633;28;20032;-71
2023/10/11 04:15:59;;;;;;;11.23;10.23;;;13.50;99.90;;;;;;5092991;28;20021;-72
2023/10/11 04:21:14;;;;;;;12.20;11.10;;;13.50;99.90;;;;;;5092877;28;20056;-71
2023/10/11 04:23:41;;;;;;;12.88;11.57;;;13.50;99.90;;;;;;5091999;28;20028;-72
2023/10/11 04:26:08;;;;;;;14.40;12.90;;;13.30;99.90;;;;;;5091343;28;20502;-71
2023/10/11 04:28:34;;;;;;;14.57;13.18;;;13.20;99.90;;;;;;5092114;28;20047;-72
2023/10/11 04:33:50;;;;;;;21.45;18.33;;;12.90;99.90;;;;;;5092003;28;20119;-72
2023/10/11 04:36:20;;;;;;;22.55;19.40;;;12.80;99.90;;;;;;5092143;28;20036;-71
2023/10/11 04:38:49;;;;;;;21.67;19.23;;;12.60;99.90;;;;;;5092078;28;20114;-72
2023/10/11 04:41:18;;;;;;;21.45;18.73;;;12.60;99.90;;;;;;5091822;28;20420;-72
2023/10/11 04:44:04;;;;;;;19.08;17.08;;;12.60;99.90;;;;;;5091785;28;20028;-72
2023/10/11 04:46:31;;;;;;;20.67;18.48;;;12.50;99.90;;;;;;5092503;28;20024;-72
2023/10/11 04:49:17;;;;;;;21.90;18.70;;;12.40;99.90;;;;;;5092071;28;20023;-72
2023/10/11 04:51:45;;;;;;;25.45;21.63;;;12.40;99.90;;;;;;5092114;28;20119;-72
2023/10/11 04:54:13;;;;;;;28.95;23.92;;;12.40;99.90;;;;;;5091618;28;20050;-71
2023/10/11 05:02:02;;;;;;;26.92;23.60;;;12.30;99.90;;;;;;5091728;28;20032;-72
2023/10/11 05:04:28;;;;;;;32.78;26.27;;;12.30;99.90;;;;;;5091960;28;20035;-72
2023/10/11 05:06:55;;;;;;;28.45;25.25;;;12.30;99.90;;;;;;5091610;28;20024;-72
2023/10/11 05:09:29;;;;;;;30.52;27.00;;;12.20;99.90;;;;;;5091298;28;20030;-72
2023/10/11 05:14:40;;;;;;;29.15;26.08;;;12.30;99.90;;;;;;5091880;28;20032;-71
2023/10/11 05:19:53;;;;;;;29.13;25.80;;;12.20;99.90;;;;;;5092102;28;20078;-71
2023/10/11 05:32:49;;;;;;;25.77;23.05;;;12.20;99.90;;;;;;5091201;28;20517;-70
2023/10/11 05:51:31;;;;;;;18.40;16.42;;;12.80;99.90;;;;;;5091103;28;20038;-71
2023/10/11 05:53:59;;;;;;;17.17;15.50;;;13.00;99.90;;;;;;5089823;28;20020;-71
2023/10/11 05:56:26;;;;;;;16.67;15.18;;;13.00;99.90;;;;;;5091526;28;20402;-70
2023/10/11 05:58:53;;;;;;;16.40;14.80;;;13.00;99.90;;;;;;5091018;28;20023;-70
2023/10/11 06:01:21;;;;;;;16.20;14.68;;;12.90;99.90;;;;;;5090878;28;20031;-71
2023/10/11 06:03:51;;;;;;;16.67;15.18;;;12.80;99.90;;;;;;5091103;28;20031;-71
2023/10/11 06:06:38;;;;;;;16.00;14.43;;;12.70;99.90;;;;;;5090398;28;20036;-71
2023/10/11 06:09:26;;;;;;;15.80;14.30;;;12.50;99.90;;;;;;5090620;28;20020;-71
2023/10/11 06:11:52;;;;;;;15.55;14.00;;;12.30;99.90;;;;;;5089983;28;20024;-71
2023/10/11 06:14:18;;;;;;;15.13;13.68;;;12.20;99.90;;;;;;5091099;28;20035;-71
2023/10/11 06:16:49;;;;;;;16.17;14.48;;;12.10;99.90;;;;;;5090922;28;20107;-72
2023/10/11 06:19:16;;;;;;;16.83;15.23;;;12.00;99.90;;;;;;5091189;28;20032;-71
2023/10/11 06:21:56;;;;;;;17.38;15.68;;;12.00;99.90;;;;;;5090484;28;20027;-71
2023/10/11 06:24:39;;;;;;;18.35;16.55;;;12.00;99.90;;;;;;5090398;28;20073;-71
2023/10/11 06:29:55;;;;;;;18.77;16.95;;;12.20;99.90;;;;;;5090984;28;20059;-71
2023/10/11 06:32:22;;;;;;;18.52;16.77;;;12.10;99.90;;;;;;5090684;28;20470;-71
2023/10/11 06:34:50;;;;;;;16.85;15.35;;;12.10;99.90;;;;;;5090771;28;20093;-70
2023/10/11 06:37:25;;;;;;;16.95;15.32;;;12.20;99.90;;;;;;5090543;28;20027;-71
2023/10/11 06:42:21;;;;;;;19.90;15.15;;;12.00;99.90;;;;;;5090895;28;20030;-70
2023/10/11 06:44:47;;;;;;;18.20;15.48;;;11.90;99.90;;;;;;5090436;28;20179;-71
2023/10/11 06:47:14;;;;;;;15.88;14.27;;;11.90;99.90;;;;;;5090376;28;20103;-71
2023/10/11 06:49:53;;;;;;;15.98;14.45;;;11.90;99.90;;;;;;5090311;28;20028;-72
2023/10/11 06:52:30;;;;;;;15.10;13.57;;;11.90;99.90;;;;;;5093862;28;20032;-71
2023/10/11 06:57:39;;;;;;;22.17;14.75;;;12.10;99.90;;;;;;5094392;28;20024;-71
2023/10/11 07:00:27;;;;;;;15.68;14.07;;;12.10;99.90;;;;;;5093987;28;20040;-71
2023/10/11 07:03:26;;;;;;;17.35;13.80;;;12.10;99.90;;;;;;5093733;28;20543;-72
2023/10/11 07:06:01;;;;;;;15.40;13.73;;;12.20;99.90;;;;;;5093483;28;20173;-71
2023/10/11 07:08:34;;;;;;;14.77;13.20;;;12.10;99.90;;;;;;5093651;28;20024;-72
2023/10/11 07:13:29;;;;;;;16.92;15.27;;;12.10;99.90;;;;;;5093667;28;20020;-72
2023/10/11 07:16:00;;;;;;;20.08;15.50;;;12.10;99.90;;;;;;5093843;28;20516;-72
2023/10/11 07:18:26;;;;;;;18.38;15.68;;;12.20;99.90;;;;;;5093351;28;20035;-70
2023/10/11 07:20:58;;;;;;;18.45;15.10;;;12.60;99.90;;;;;;5094056;28;20033;-74
2023/10/11 07:23:35;;;;;;;15.82;14.15;;;12.90;99.90;;;;;;5093905;28;20024;-73
2023/10/11 07:28:52;;;;;;;17.85;15.98;;;13.00;99.90;;;;;;5093820;28;20055;-73
2023/10/11 07:31:19;;;;;;;19.88;17.75;;;13.10;99.90;;;;;;5094113;28;20046;-73
2023/10/11 07:33:55;;;;;;;19.63;17.63;;;13.10;99.90;;;;;;5093518;28;20031;-73
2023/10/11 07:36:22;;;;;;;18.75;16.90;;;13.10;99.90;;;;;;5093447;28;20024;-73
2023/10/11 07:39:00;;;;;;;16.92;15.32;;;13.20;99.90;;;;;;5094107;28;20038;-73
2023/10/11 07:41:29;;;;;;;17.02;15.02;;;13.40;99.90;;;;;;5093601;28;20502;-74
2023/10/11 07:44:01;;;;;;;17.10;15.55;;;13.50;99.90;;;;;;5093581;28;20390;-73
2023/10/11 07:46:30;;;;;;;16.48;14.80;;;13.60;99.90;;;;;;5092980;28;20074;-73
2023/10/11 07:49:02;;;;;;;17.25;15.55;;;13.60;99.90;;;;;;5092843;28;20024;-74
2023/10/11 07:51:29;;;;;;;16.88;15.38;;;13.50;99.90;;;;;;5093400;28;20101;-73
2023/10/11 07:53:55;;;;;;;17.10;15.40;;;13.40;99.90;;;;;;5093509;28;20092;-73
2023/10/11 07:56:21;;;;;;;17.52;15.93;;;13.40;99.90;;;;;;5093018;28;20032;-73
2023/10/11 07:58:48;;;;;;;18.60;16.73;;;13.40;99.90;;;;;;5092948;28;20456;-73
2023/10/11 08:01:15;;;;;;;18.58;16.35;;;13.40;99.90;;;;;;5092555;28;20028;-73
2023/10/11 08:03:44;;;;;;;20.40;18.15;;;13.40;99.90;;;;;;5092587;28;20023;-73
2023/10/11 08:06:14;;;;;;;19.83;17.77;;;13.40;99.90;;;;;;5092847;28;20043;-73
2023/10/11 08:08:40;;;;;;;23.02;18.45;;;13.50;99.90;;;;;;5093246;28;20486;-73
2023/10/11 08:11:18;;;;;;;19.20;17.20;;;13.60;99.90;;;;;;5092762;28;20035;-72
2023/10/11 08:13:47;;;;;;;20.10;18.08;;;13.70;99.90;;;;;;5092702;28;20490;-72
2023/10/11 08:16:17;;;;;;;19.70;17.70;;;13.80;99.90;;;;;;5092525;28;20090;-72
2023/10/11 08:18:48;;;;;;;20.30;17.73;;;13.90;99.90;;;;;;5092773;28;20028;-72
2023/10/11 08:21:15;;;;;;;20.42;18.27;;;14.00;99.90;;;;;;5092766;28;20032;-72
2023/10/11 08:23:44;;;;;;;19.73;17.85;;;14.20;99.90;;;;;;5092146;28;20137;-72
2023/10/11 08:26:14;;;;;;;21.70;19.40;;;14.30;99.90;;;;;;5092409;28;20058;-72
2023/10/11 08:28:49;;;;;;;22.90;20.73;;;14.40;99.90;;;;;;5092537;28;20039;-72
2023/10/11 08:34:14;;;;;;;22.98;20.85;;;14.60;99.90;;;;;;5083490;28;20036;-73
2023/10/11 08:36:42;;;;;;;23.27;20.75;;;14.80;99.90;;;;;;5092512;28;20034;-74
2023/10/11 08:39:08;;;;;;;22.00;19.77;;;14.80;99.90;;;;;;5092611;28;20513;-73
2023/10/11 08:41:34;;;;;;;21.35;18.98;;;14.90;99.90;;;;;;5092258;28;20028;-74
2023/10/11 08:44:15;;;;;;;19.95;18.15;;;15.00;99.90;;;;;;5092632;28;20016;-73
2023/10/11 08:46:45;;;;;;;19.40;17.40;;;15.10;99.90;;;;;;5091831;28;20112;-74
2023/10/11 08:49:14;;;;;;;21.15;19.13;;;15.20;99.90;;;;;;5092180;28;20028;-73
2023/10/11 08:51:43;;;;;;;19.65;17.75;;;15.30;99.90;;;;;;5092314;28;20028;-73
2023/10/11 08:54:16;;;;;;;21.95;19.65;;;15.40;99.90;;;;;;5092178;28;20489;-73
2023/10/11 08:56:54;;;;;;;21.48;19.33;;;15.50;99.90;;;;;;5091961;28;20169;-73
2023/10/11 08:59:25;;;;;;;21.15;19.05;;;15.70;99.90;;;;;;5092029;28;20028;-73
2023/10/11 09:01:52;;;;;;;22.88;19.45;;;16.10;99.90;;;;;;5091508;28;20032;-72
2023/10/11 09:04:18;;;;;;;20.25;18.35;;;16.20;99.90;;;;;;5091714;28;20089;-73
2023/10/11 09:06:45;;;;;;;20.67;18.63;;;16.40;99.90;;;;;;5092207;28;20435;-73
2023/10/11 09:09:41;;;;;;;22.88;18.50;;;16.70;99.90;;;;;;5091045;28;20043;-74
2023/10/11 09:12:23;;;;;;;19.83;17.75;;;16.90;99.90;;;;;;5091159;28;20068;-73
2023/10/11 09:14:59;;;;;;;23.05;18.42;;;17.10;99.90;;;;;;5091784;28;20094;-74
2023/10/11 09:17:26;;;;;;;20.15;18.15;;;17.10;99.90;;;;;;5091472;28;20080;-74
2023/10/11 09:19:56;;;;;;;21.95;19.65;;;17.30;99.90;;;;;;5091777;28;20039;-74
2023/10/11 09:22:23;;;;;;;20.55;18.65;;;17.30;99.90;;;;;;5091302;28;20031;-72
2023/10/11 09:25:08;;;;;;;19.65;17.60;;;17.40;99.90;;;;;;5091567;28;20410;-73
2023/10/11 09:27:50;;;;;;;19.05;17.05;;;17.60;99.90;;;;;;5091018;28;20409;-71
2023/10/11 09:30:20;;;;;;;21.02;17.70;;;17.90;99.90;;;;;;5091522;28;20040;-73
2023/10/11 09:32:49;;;;;;;17.90;16.08;;;17.90;99.90;;;;;;5091521;28;20016;-73
2023/10/11 09:35:28;;;;;;;19.65;15.45;;;17.70;99.90;;;;;;5091650;28;20039;-73
2023/10/11 09:37:58;;;;;;;16.73;15.07;;;17.60;99.90;;;;;;5091261;28;20498;-73
2023/10/11 09:40:31;;;;;;;16.90;14.27;;;17.70;99.90;;;;;;5091419;28;20028;-72
2023/10/11 09:43:01;;;;;;;22.80;15.15;;;17.80;99.90;;;;;;5091456;28;20536;-72
2023/10/11 09:45:41;;;;;;;26.80;15.40;;;18.00;99.90;;;;;;5090883;28;20123;-74
2023/10/11 09:48:09;;;;;;;18.55;14.00;;;18.10;99.90;;;;;;5091275;28;20086;-73
2023/10/11 09:50:40;;;;;;;18.08;13.57;;;18.20;99.90;;;;;;5091117;28;20128;-71
2023/10/11 09:53:09;;;;;;;15.98;13.43;;;18.30;99.90;;;;;;5090818;28;20537;-71
2023/10/11 09:55:39;;;;;;;15.45;13.35;;;18.50;99.90;;;;;;5090963;28;20032;-71
2023/10/11 09:58:18;;;;;;;14.82;13.00;;;18.60;99.90;;;;;;5090746;28;20035;-71
2023/10/11 10:00:54;;;;;;;14.10;12.63;;;18.80;99.90;;;;;;5091168;28;20031;-71
2023/10/11 10:03:24;;;;;;;13.75;12.23;;;18.90;99.90;;;;;;5091051;28;20512;-73
2023/10/11 10:06:19;;;;;;;14.02;12.55;;;19.10;99.90;;;;;;5091317;28;20040;-73
2023/10/11 10:08:47;;;;;;;;;;;19.40;99.90;;;;;;5091406;28;20024;-72
2023/10/11 10:11:13;;;;;;;13.88;12.25;;;19.50;99.90;;;;;;5091400;28;19904;-74
2023/10/11 10:14:17;;;;;;;14.43;12.95;;;19.60;99.90;;;;;;5090266;28;20031;-73
2023/10/11 10:17:11;;;;;;;14.55;13.13;;;19.80;99.90;;;;;;5091622;28;20486;-73
2023/10/11 10:19:43;;;;;;;13.70;12.30;;;19.80;99.90;;;;;;5091287;28;20028;-73
2023/10/11 10:22:27;;;;;;;13.73;11.70;;;19.80;99.90;;;;;;5090441;28;20058;-73
2023/10/11 10:24:57;;;;;;;13.50;11.00;;;20.10;99.90;;;;;;5080378;28;20165;-72
2023/10/11 10:27:33;;;;;;;12.23;11.02;;;20.30;99.90;;;;;;5073906;28;20491;-71
2023/10/11 10:29:59;;;;;;;16.08;11.70;;;20.50;99.90;;;;;;5074736;28;20036;-75
2023/10/11 10:32:26;;;;;;;12.15;10.85;;;20.70;99.90;;;;;;5073539;28;20023;-73
2023/10/11 10:35:18;;;;;;;11.77;10.57;;;20.70;99.90;;;;;;5073629;28;20074;-73
2023/10/11 10:37:46;;;;;;;11.90;10.80;;;21.00;99.90;;;;;;5072967;28;20394;-75
2023/10/11 10:40:25;;;;;;;13.48;11.30;;;21.20;99.90;;;;;;5073596;28;20525;-76
2023/10/11 10:43:06;;;;;;;12.25;10.93;;;21.40;99.90;;;;;;5073870;28;20028;-76
2023/10/11 10:45:34;;;;;;;12.27;10.82;;;21.60;99.90;;;;;;5074216;28;20044;-75
2023/10/11 10:48:15;;;;;;;12.73;11.15;;;21.80;99.90;;;;;;5074402;28;20040;-73
2023/10/11 10:51:05;;;;;;;13.10;10.27;;;22.00;99.90;;;;;;5074128;28;20437;-76
2023/10/11 10:53:38;;;;;;;11.82;9.65;;;21.90;99.90;;;;;;5074245;28;20020;-75
2023/10/11 10:56:04;;;;;;;12.63;8.70;;;22.20;99.90;;;;;;5073675;28;20020;-75
2023/10/11 10:58:30;;;;;;;9.70;8.70;;;22.40;99.90;;;;;;5073843;28;20286;-74
2023/10/11 11:00:59;;;;;;;10.48;9.10;;;22.60;99.90;;;;;;5074159;28;20028;-75
2023/10/11 11:03:31;;;;;;;11.93;8.43;;;22.60;99.90;;;;;;5073803;28;20032;-75
2023/10/11 11:06:02;;;;;;;11.30;8.25;;;22.70;99.90;;;;;;5073652;28;20033;-74
2023/10/11 11:08:31;;;;;;;11.73;8.32;;;22.80;99.90;;;;;;5073819;28;20031;-75
2023/10/11 11:11:19;;;;;;;10.65;7.35;;;22.90;99.90;;;;;;5073547;28;20033;-74
2023/10/11 11:13:47;;;;;;;10.10;8.15;;;23.20;99.90;;;;;;5073559;28;20079;-74
2023/10/11 11:16:22;;;;;;;13.93;7.93;;;23.20;99.90;;;;;;5073557;28;20695;-73
2023/10/11 11:18:48;;;;;;;9.90;7.40;;;23.20;99.90;;;;;;5073567;28;20035;-72
2023/10/11 11:21:29;;;;;;;11.73;7.20;;;23.20;99.90;;;;;;5073358;28;20028;-72
2023/10/11 11:24:14;;;;;;;11.00;6.47;;;23.30;99.90;;;;;;5077568;28;20031;-71
2023/10/11 11:26:40;;;;;;;11.57;6.70;;;23.40;99.90;;;;;;5093005;28;20157;-74
2023/10/11 11:29:11;;;;;;;12.63;5.90;;;23.50;99.90;;;;;;5093356;28;20055;-73
2023/10/11 11:31:53;;;;;;;13.52;6.40;;;23.60;99.90;;;;;;5093935;28;20071;-74
2023/10/11 11:34:28;;;;;;;11.93;6.47;;;23.80;99.90;;;;;;5093337;28;20107;-73
2023/10/11 11:36:58;;;;;;;11.07;5.90;;;23.90;99.90;;;;;;5092581;28;20020;-74
2023/10/11 11:39:27;;;;;;;14.95;6.53;;;24.00;99.90;;;;;;5093185;28;20020;-73
2023/10/11 11:41:57;;;;;;;9.93;6.15;;;24.10;99.90;;;;;;5093392;28;20040;-74
2023/10/11 11:44:24;;;;;;;11.85;6.10;;;24.20;99.90;;;;;;5092975;28;20032;-74
2023/10/11 11:46:52;;;;;;;9.55;5.80;;;24.30;99.90;;;;;;5093147;28;20024;-74
2023/10/11 11:49:23;;;;;;;13.13;6.05;;;24.50;99.90;;;;;;5093489;28;20017;-74
2023/10/11 11:51:55;;;;;;;13.45;5.82;;;24.60;99.90;;;;;;5092997;28;20031;-74
2023/10/11 11:54:28;;;;;;;12.10;6.43;;;24.70;99.90;;;;;;5091308;28;20085;-74
2023/10/11 11:56:55;;;;;;;15.98;6.30;;;24.90;99.90;;;;;;5093003;28;20028;-74
2023/10/11 11:59:21;;;;;;;11.15;5.53;;;24.90;99.90;;;;;;5092929;28;20055;-74
2023/10/11 12:01:49;;;;;;;9.80;5.63;;;25.00;99.90;;;;;;5093220;28;20031;-74
2023/10/11 12:04:20;;;;;;;12.10;6.00;;;25.00;99.90;;;;;;5093015;28;20483;-74
2023/10/11 12:06:47;;;;;;;11.30;5.97;;;25.00;99.90;;;;;;5092869;28;20051;-74
2023/10/11 12:09:20;;;;;;;11.20;6.57;;;25.10;99.90;;;;;;5092642;28;20056;-74
2023/10/11 12:11:49;;;;;;;;;;;25.10;99.90;;;;;;5093045;28;20028;-74
2023/10/11 12:14:16;;;;;;;9.00;7.90;;;25.00;99.90;;;;;;5092782;28;19904;-75
2023/10/11 12:16:42;;;;;;;11.73;8.50;;;25.10;99.90;;;;;;5092870;28;20016;-75
2023/10/11 12:19:13;;;;;;;13.63;9.43;;;25.10;99.90;;;;;;5093232;28;20024;-75
2023/10/11 12:21:39;;;;;;;11.18;8.77;;;24.90;99.90;;;;;;5092566;28;20493;-75
2023/10/11 12:24:10;;;;;;;11.60;8.65;;;24.90;99.90;;;;;;5092120;28;20398;-75
2023/10/11 12:26:40;;;;;;;10.93;8.48;;;24.90;99.90;;;;;;5092637;28;20024;-75
2023/10/11 12:29:09;;;;;;;10.80;8.93;;;25.10;99.90;;;;;;5092267;28;20649;-74
2023/10/11 12:31:38;;;;;;;10.38;8.43;;;25.10;99.90;;;;;;5092710;28;20402;-75
2023/10/11 12:34:05;;;;;;;12.60;8.40;;;25.10;99.90;;;;;;5092336;28;20031;-75
2023/10/11 12:36:31;;;;;;;19.33;8.30;;;25.10;99.90;;;;;;5092709;28;20020;-75
2023/10/11 12:39:01;;;;;;;10.07;8.30;;;25.10;99.90;;;;;;5092036;28;20478;-75
2023/10/11 12:41:26;;;;;;;11.10;8.00;;;25.30;99.90;;;;;;5092344;28;20453;-74
2023/10/11 12:43:52;;;;;;;11.38;7.85;;;25.60;99.90;;;;;;5092196;28;20116;-75
2023/10/11 12:46:18;;;;;;;11.13;7.80;;;25.70;99.90;;;;;;5092446;28;20046;-75
2023/10/11 12:48:44;;;;;;;12.55;8.50;;;25.80;99.90;;;;;;5091066;28;20103;-75
2023/10/11 12:51:10;;;;;;;12.75;8.05;;;25.70;99.90;;;;;;5092068;28;20449;-76
2023/10/11 12:53:36;;;;;;;14.05;8.82;;;25.60;99.90;;;;;;5091510;28;20137;-75
2023/10/11 12:56:02;;;;;;;13.60;8.48;;;25.70;99.90;;;;;;5092658;28;20512;-77
2023/10/11 12:58:38;;;;;;;13.05;8.40;;;25.90;99.90;;;;;;5091816;28;20028;-74
2023/10/11 13:01:50;;;;;;;13.77;8.35;;;25.70;99.90;;;;;;5091962;28;20027;-75
2023/10/11 13:04:05;;;;;;;12.25;8.90;;;25.70;99.90;;;;;;5088588;28;20061;-74
2023/10/11 13:06:36;;;;;;;10.25;8.60;;;25.70;99.90;;;;;;5091566;28;20054;-74
2023/10/11 13:09:03;;;;;;;13.60;8.60;;;25.60;99.90;;;;;;5091544;28;20028;-75
2023/10/11 13:11:31;;;;;;;11.18;8.18;;;25.70;99.90;;;;;;5091695;28;20402;-73
2023/10/11 13:14:05;;;;;;;12.55;8.63;;;25.90;99.90;;;;;;5091630;28;20024;-74
2023/10/11 13:16:32;;;;;;;15.02;9.38;;;25.80;99.90;;;;;;5091780;28;20039;-74
2023/10/11 13:18:59;;;;;;;14.55;9.60;;;25.80;99.90;;;;;;5091878;28;20027;-74
2023/10/11 13:21:28;;;;;;;14.25;10.02;;;25.70;99.90;;;;;;5090975;28;20039;-74
2023/10/11 13:23:54;;;;;;;11.43;9.20;;;25.70;99.90;;;;;;5091137;28;20020;-75
2023/10/11 13:26:20;;;;;;;11.90;9.10;;;25.70;99.90;;;;;;5091381;28;20039;-73
2023/10/11 13:28:53;;;;;;;11.90;10.57;;;25.80;99.90;;;;;;5090750;28;20533;-74
2023/10/11 13:31:18;;;;;;;16.48;10.63;;;25.80;99.90;;;;;;5090714;28;20053;-74
2023/10/11 13:33:44;;;;;;;13.23;10.93;;;25.70;99.90;;;;;;5091184;28;20028;-74
2023/10/11 13:36:12;;;;;;;12.00;10.70;;;25.70;99.90;;;;;;5090807;28;20020;-74
2023/10/11 13:38:41;;;;;;;14.88;10.65;;;25.70;99.90;;;;;;5091267;28;20119;-73
2023/10/11 13:41:12;;;;;;;13.50;9.98;;;25.70;99.90;;;;;;5091099;28;20032;-74
2023/10/11 13:43:38;;;;;;;11.75;9.48;;;25.80;99.90;;;;;;5091177;28;20028;-73
2023/10/11 13:46:07;;;;;;;14.18;9.90;;;26.00;99.90;;;;;;5091345;28;20032;-74
2023/10/11 13:48:37;;;;;;;11.07;9.32;;;26.00;99.90;;;;;;5091406;28;20028;-74
2023/10/11 13:51:06;;;;;;;13.50;9.48;;;26.10;99.90;;;;;;5090830;28;20035;-74
2023/10/11 13:53:40;;;;;;;14.13;8.98;;;26.00;99.90;;;;;;5091067;28;20020;-74